Time;durP1;ratioP1;P1;durP2;ratioP2;P2;SDS_P1;SDS_P2;PMS_P1;PMS_P2;Temp;Humidity;BMP_temperature;BMP_pressure;BME280_temperature;BME280_humidity;BME280_pressure;Samples;Min_cycle;Max_cycle;Signal;HPM_P1;HPM_P2
2021/07/13 00:02:10;;;;;;;2.53;1.58;;;;;;;17.82;70.47;93141.47;5033059;28;20049;-87
2021/07/13 00:04:37;;;;;;;2.55;1.52;;;;;;;17.90;70.70;93161.78;5033378;28;20409;-87
2021/07/13 00:07:05;;;;;;;1.45;1.08;;;;;;;17.95;70.99;93166.19;5033276;28;20425;-87
2021/07/13 00:09:32;;;;;;;2.75;1.58;;;;;;;17.88;71.34;93158.63;5032869;28;20379;-87
2021/07/13 00:11:59;;;;;;;2.22;1.60;;;;;;;17.88;71.65;93163.06;5033206;28;20057;-88
2021/07/13 00:14:26;;;;;;;3.65;1.98;;;;;;;17.84;71.78;93164.59;5033180;28;20136;-88
2021/07/13 00:16:53;;;;;;;2.80;1.45;;;;;;;17.81;72.17;93167.72;5033024;28;20072;-87
2021/07/13 00:19:20;;;;;;;4.88;2.10;;;;;;;17.80;72.33;93161.75;5032999;28;20096;-87
2021/07/13 00:21:47;;;;;;;2.83;1.58;;;;;;;17.75;72.15;93167.72;5032803;28;20049;-88
2021/07/13 00:24:16;;;;;;;2.50;1.20;;;;;;;17.76;72.49;93171.88;5032596;28;20045;-87
2021/07/13 00:26:43;;;;;;;2.05;1.27;;;;;;;17.73;72.99;93177.56;5032617;28;20053;-87
2021/07/13 00:29:09;;;;;;;2.75;1.40;;;;;;;17.69;72.65;93167.94;5033000;28;20103;-87
2021/07/13 00:31:36;;;;;;;3.03;1.63;;;;;;;17.76;71.96;93171.06;5032619;28;20489;-87
2021/07/13 00:34:03;;;;;;;2.40;1.40;;;;;;;17.80;72.08;93176.53;5032666;28;20176;-87
2021/07/13 00:36:30;;;;;;;2.40;1.10;;;;;;;17.73;72.24;93171.59;5032502;28;20088;-88
2021/07/13 00:38:57;;;;;;;3.05;1.42;;;;;;;17.73;71.86;93174.97;5032478;28;20096;-88
2021/07/13 00:41:25;;;;;;;1.92;1.35;;;;;;;17.73;72.14;93172.38;5032520;28;20060;-87
2021/07/13 00:43:52;;;;;;;2.15;1.58;;;;;;;17.66;72.57;93171.84;5032386;28;20417;-88
2021/07/13 00:46:19;;;;;;;3.17;1.42;;;;;;;17.57;72.42;93166.34;5032439;28;20057;-87
2021/07/13 00:48:46;;;;;;;4.13;2.03;;;;;;;17.55;72.72;93170.22;5032442;28;20046;-87
2021/07/13 00:51:13;;;;;;;2.50;1.27;;;;;;;17.55;72.88;93172.81;5032225;28;20049;-88
2021/07/13 00:53:43;;;;;;;2.20;1.70;;;;;;;17.48;72.96;93168.66;5032294;28;20556;-87
2021/07/13 00:56:11;;;;;;;2.03;1.20;;;;;;;17.54;72.70;93171.28;5032363;28;20042;-88
2021/07/13 00:58:39;;;;;;;3.10;1.58;;;;;;;17.45;72.78;93163.19;5032063;28;20478;-87
2021/07/13 01:01:07;;;;;;;2.75;1.52;;;;;;;17.40;73.34;93163.16;5032214;28;20049;-87
2021/07/13 01:03:35;;;;;;;3.53;2.05;;;;;;;17.33;73.16;93158.19;5031861;28;20081;-87
2021/07/13 01:06:03;;;;;;;2.47;0.88;;;;;;;17.36;73.49;93161.06;5031909;28;20367;-87
2021/07/13 01:08:37;;;;;;;3.63;1.90;;;;;;;17.34;73.49;93155.34;5032239;28;20092;-88
2021/07/13 01:11:13;;;;;;;3.80;1.60;;;;;;;17.23;73.30;93135.56;5031797;28;20061;-88
2021/07/13 01:13:50;;;;;;;2.90;2.17;;;;;;;17.16;73.39;93132.41;5031889;28;20057;-88
2021/07/13 01:16:24;;;;;;;13.85;2.05;;;;;;;17.24;73.95;93150.09;5031705;28;20091;-87
2021/07/13 01:18:59;;;;;;;2.55;2.25;;;;;;;17.22;74.17;93157.38;5031945;28;20049;-87
2021/07/13 01:21:55;;;;;;;2.85;1.83;;;;;;;17.14;74.27;93152.66;5031859;28;20049;-88
2021/07/13 01:24:55;;;;;;;2.45;1.30;;;;;;;17.09;74.49;93163.78;5008212;28;20490;-88
2021/07/13 01:27:38;;;;;;;3.15;1.90;;;;;;;17.04;74.86;93164.53;5031597;28;20540;-87
2021/07/13 01:30:09;;;;;;;1.88;1.20;;;;;;;17.00;75.25;93170.44;5031604;28;20053;-88
2021/07/13 01:32:38;;;;;;;3.40;1.83;;;;;;;16.99;75.68;93167.06;5031416;28;20053;-88
2021/07/13 01:35:08;;;;;;;2.10;1.50;;;;;;;16.89;75.81;93154.81;5031316;28;20509;-88
2021/07/13 01:37:36;;;;;;;2.83;1.70;;;;;;;16.94;75.81;93167.81;5031285;28;20053;-88
2021/07/13 01:40:07;;;;;;;2.40;1.55;;;;;;;16.92;75.76;93161.31;5031423;28;20041;-88
2021/07/13 01:42:36;;;;;;;1.80;1.25;;;;;;;16.92;76.60;93176.88;5031402;28;20057;-88
2021/07/13 01:45:06;;;;;;;3.50;1.73;;;;;;;16.88;76.63;93181.78;5031280;28;20058;-88
2021/07/13 01:47:37;;;;;;;3.55;1.45;;;;;;;16.85;76.90;93173.72;5031131;28;20096;-88
2021/07/13 01:50:06;;;;;;;3.22;1.77;;;;;;;16.90;76.96;93179.72;5031441;28;20057;-88
2021/07/13 01:52:34;;;;;;;2.10;1.35;;;;;;;16.82;76.33;93169.81;5031267;28;20057;-88
2021/07/13 01:55:02;;;;;;;1.75;1.58;;;;;;;16.96;76.27;93177.94;5031333;28;20045;-88
2021/07/13 01:57:30;;;;;;;4.53;2.03;;;;;;;16.96;76.16;93173.53;5030451;28;20064;-88
2021/07/13 01:59:59;;;;;;;2.58;1.27;;;;;;;16.96;76.21;93177.94;5030895;28;20045;-87
2021/07/13 02:02:28;;;;;;;1.67;1.20;;;;;;;16.92;75.87;93169.88;5031158;28;20080;-87
2021/07/13 02:04:57;;;;;;;2.60;1.33;;;;;;;16.95;75.89;93176.38;5030891;28;20144;-87
2021/07/13 02:07:25;;;;;;;2.72;2.17;;;;;;;16.94;76.04;93180.03;5031115;28;20045;-88
2021/07/13 02:09:52;;;;;;;1.80;1.58;;;;;;;16.90;76.13;93169.34;5031056;28;20053;-88
2021/07/13 02:12:19;;;;;;;2.45;1.38;;;;;;;16.88;76.19;93168.03;5030744;28;20568;-88
2021/07/13 02:14:46;;;;;;;3.22;1.90;;;;;;;16.88;76.46;93175.81;5030792;28;20049;-88
2021/07/13 02:17:13;;;;;;;2.00;1.42;;;;;;;16.80;76.81;93167.47;5031063;28;20041;-88
2021/07/13 02:19:40;;;;;;;2.50;1.55;;;;;;;16.79;76.72;93162.53;5030920;28;20046;-87
2021/07/13 02:22:09;;;;;;;3.00;1.17;;;;;;;16.75;76.87;93170.03;5030670;28;20049;-88
2021/07/13 02:24:35;;;;;;;2.47;1.88;;;;;;;16.72;77.40;93175.72;5030637;28;20053;-87
2021/07/13 02:27:05;;;;;;;1.70;1.52;;;;;;;16.60;77.29;93156.94;5030590;28;20506;-88
2021/07/13 02:29:37;;;;;;;2.17;1.30;;;;;;;16.62;77.65;93180.81;5030591;28;20053;-87
2021/07/13 02:32:10;;;;;;;4.50;1.70;;;;;;;16.60;77.69;93182.88;5030564;28;20092;-87
2021/07/13 02:34:40;;;;;;;2.83;1.92;;;;;;;16.60;77.54;93177.69;5030615;28;20569;-88
2021/07/13 02:37:12;;;;;;;2.20;1.60;;;;;;;16.64;77.70;93181.34;5030547;28;20045;-87
2021/07/13 02:39:40;;;;;;;2.63;1.88;;;;;;;16.64;78.07;93184.75;5030455;28;20041;-88
2021/07/13 02:42:08;;;;;;;2.75;1.73;;;;;;;16.65;77.85;93185.50;5030386;28;20079;-88
2021/07/13 02:44:37;;;;;;;2.95;1.65;;;;;;;16.54;78.41;93177.63;5030593;28;20049;-88
2021/07/13 02:47:06;;;;;;;2.70;1.33;;;;;;;16.59;78.46;93176.13;5030456;28;20045;-88
2021/07/13 02:49:38;;;;;;;3.65;1.58;;;;;;;16.56;78.48;93177.41;5030682;28;20049;-87
2021/07/13 02:52:06;;;;;;;2.72;1.77;;;;;;;16.52;78.83;93179.72;5030310;28;20143;-87
2021/07/13 02:54:37;;;;;;;3.60;2.28;;;;;;;16.37;79.31;93157.03;5030462;28;20096;-88
2021/07/13 02:57:05;;;;;;;2.42;1.73;;;;;;;16.30;78.77;93153.88;5030379;28;20184;-88
2021/07/13 02:59:35;;;;;;;2.40;1.50;;;;;;;16.48;79.38;93177.88;5002701;28;20045;-88
2021/07/13 03:02:03;;;;;;;2.08;1.63;;;;;;;16.47;79.46;93184.09;5010587;28;20042;-87
2021/07/13 03:04:30;;;;;;;2.55;1.85;;;;;;;16.46;79.56;93179.91;5010449;28;20042;-88
2021/07/13 03:06:58;;;;;;;3.25;2.72;;;;;;;16.46;79.39;93187.69;5010768;28;20054;-88
2021/07/13 03:09:25;;;;;;;2.53;1.70;;;;;;;16.44;79.89;93182.75;5014613;28;20100;-88
2021/07/13 03:11:55;;;;;;;2.15;1.52;;;;;;;16.36;79.89;93181.41;5014259;28;20060;-87
2021/07/13 03:14:22;;;;;;;3.15;1.55;;;;;;;16.38;79.86;93188.94;5014318;28;20045;-87
2021/07/13 03:16:50;;;;;;;2.53;1.33;;;;;;;16.39;80.04;93191.25;5014290;28;20079;-88
2021/07/13 03:19:17;;;;;;;2.53;1.88;;;;;;;16.41;79.77;93191.81;5014074;28;20054;-88
2021/07/13 03:21:51;;;;;;;3.13;1.80;;;;;;;16.41;79.26;93186.63;5014338;28;20061;-88
2021/07/13 03:24:19;;;;;;;3.53;1.80;;;;;;;16.49;79.27;93189.78;5014100;28;20132;-88
2021/07/13 03:26:47;;;;;;;4.28;2.88;;;;;;;16.49;79.29;93185.41;5014280;28;20062;-88
2021/07/13 03:29:16;;;;;;;3.80;2.28;;;;;;;16.51;79.33;93190.31;5014186;28;20057;-88
2021/07/13 03:31:44;;;;;;;3.13;1.75;;;;;;;16.53;79.90;93188.28;5014282;28;20068;-88
2021/07/13 03:34:12;;;;;;;4.28;2.60;;;;;;;16.49;79.55;93179.44;5014160;28;20454;-88
2021/07/13 03:36:39;;;;;;;3.90;2.63;;;;;;;16.52;79.31;93171.94;5008537;28;20046;-88
2021/07/13 03:39:07;;;;;;;3.40;1.35;;;;;;;16.59;79.12;93181.31;4994544;28;20050;-88
2021/07/13 03:41:35;;;;;;;5.03;2.47;;;;;;;16.52;79.28;93173.75;4994357;28;20538;-88
2021/07/13 03:44:06;;;;;;;3.33;2.28;;;;;;;16.40;79.26;93164.31;4994193;28;20116;-88
2021/07/13 03:46:36;;;;;;;2.42;1.63;;;;;;;16.59;80.29;93181.31;4994109;28;20058;-88
2021/07/13 03:49:05;;;;;;;2.15;1.40;;;;;;;16.53;80.42;93178.66;4994263;28;20133;-87
2021/07/13 03:51:40;;;;;;;2.70;1.77;;;;;;;16.55;80.18;93174.03;4993971;28;20526;-88
2021/07/13 03:54:08;;;;;;;3.05;1.83;;;;;;;16.66;79.66;93185.25;4994033;28;20105;-88
2021/07/13 03:56:34;;;;;;;6.10;2.67;;;;;;;16.72;79.63;93188.69;4993934;28;20046;-87
2021/07/13 03:59:02;;;;;;;4.03;1.85;;;;;;;16.76;79.04;93181.19;5008203;28;20461;-88
2021/07/13 04:01:28;;;;;;;5.63;2.20;;;;;;;16.84;79.42;93180.72;5013404;28;20045;-88
2021/07/13 04:03:57;;;;;;;5.43;2.20;;;;;;;16.78;79.35;93163.56;5013543;28;20119;-87
2021/07/13 04:06:24;;;;;;;3.05;2.10;;;;;;;16.88;78.65;93173.22;5013236;28;20092;-88
2021/07/13 04:08:50;;;;;;;2.60;1.75;;;;;;;16.94;79.03;93164.47;4995098;28;20495;-88
2021/07/13 04:11:17;;;;;;;3.85;1.77;;;;;;;17.07;78.61;93179.59;4993335;28;20487;-87
2021/07/13 04:13:44;;;;;;;4.80;2.53;;;;;;;17.14;78.87;93176.00;4993547;28;20113;-87
2021/07/13 04:16:11;;;;;;;4.43;2.35;;;;;;;17.22;78.59;93171.13;4993978;28;20106;-87
2021/07/13 04:18:38;;;;;;;2.75;1.60;;;;;;;17.26;78.58;93173.97;4993405;28;20100;-88
2021/07/13 04:21:06;;;;;;;3.50;2.08;;;;;;;17.30;78.29;93177.66;4993171;28;20430;-87
2021/07/13 04:23:33;;;;;;;3.72;2.90;;;;;;;17.34;78.41;93165.72;4993509;28;20100;-87
2021/07/13 04:26:00;;;;;;;2.40;1.52;;;;;;;17.46;77.66;93169.94;4993288;28;20141;-87
2021/07/13 04:28:29;;;;;;;5.18;3.10;;;;;;;17.55;77.83;93159.84;4993490;28;20050;-88
2021/07/13 04:30:57;;;;;;;3.58;1.73;;;;;;;17.65;78.12;93164.28;4993464;28;20125;-87
2021/07/13 04:33:23;;;;;;;2.42;1.60;;;;;;;17.73;77.39;93161.22;4993377;28;20455;-88
2021/07/13 04:35:50;;;;;;;2.97;1.58;;;;;;;17.77;77.72;93151.84;4993276;28;20054;-88
2021/07/13 04:38:18;;;;;;;3.38;2.67;;;;;;;17.95;76.84;93166.19;4993072;28;20069;-87
2021/07/13 04:40:46;;;;;;;2.95;1.73;;;;;;;17.99;77.26;93156.06;4993367;28;20050;-87
2021/07/13 04:43:13;;;;;;;8.70;2.83;;;;;;;18.18;76.46;93168.63;4993415;28;20058;-87
2021/07/13 04:45:39;;;;;;;5.18;3.08;;;;;;;18.22;77.50;93160.03;4993210;28;20042;-88
2021/07/13 04:48:07;;;;;;;6.63;2.35;;;;;;;18.36;78.51;93169.91;4993069;28;20113;-87
2021/07/13 04:50:34;;;;;;;6.78;2.50;;;;;;;18.37;78.89;93161.09;4993028;28;20118;-87
2021/07/13 04:53:01;;;;;;;3.92;2.45;;;;;;;18.43;79.24;93173.81;4992653;28;20093;-87
2021/07/13 04:55:29;;;;;;;3.78;2.40;;;;;;;18.33;79.18;93170.44;4993065;28;20073;-87
2021/07/13 04:57:56;;;;;;;5.60;2.75;;;;;;;18.54;77.09;93171.22;4992807;28;20050;-87
2021/07/13 05:00:22;;;;;;;3.95;2.40;;;;;;;18.43;78.28;93173.06;4992858;28;20104;-87
2021/07/13 05:02:49;;;;;;;4.85;2.28;;;;;;;18.42;75.94;93166.28;4992732;28;20058;-88
2021/07/13 05:05:17;;;;;;;3.10;1.85;;;;;;;18.62;76.01;93168.13;4989865;28;20042;-87
2021/07/13 05:07:46;;;;;;;3.35;1.73;;;;;;;18.78;74.51;93171.50;4992622;28;20414;-88
2021/07/13 05:10:14;;;;;;;5.68;2.85;;;;;;;18.92;76.12;93170.94;4992530;28;20057;-88
2021/07/13 05:12:44;;;;;;;5.53;2.85;;;;;;;19.09;75.27;93166.28;4992557;28;20104;-88
2021/07/13 05:15:13;;;;;;;4.30;2.88;;;;;;;19.11;75.96;93171.22;4992549;28;20054;-87
2021/07/13 05:17:40;;;;;;;2.95;2.67;;;;;;;19.15;75.73;93171.44;4992479;28;20054;-88
2021/07/13 05:20:08;;;;;;;4.68;3.00;;;;;;;19.31;74.59;93172.22;4992275;28;20057;-87
2021/07/13 05:22:35;;;;;;;4.28;3.03;;;;;;;19.47;74.59;93162.50;4992555;28;20057;-88
2021/07/13 05:25:02;;;;;;;6.80;2.30;;;;;;;19.51;74.35;93160.94;4992465;28;20054;-88
2021/07/13 05:27:32;;;;;;;6.32;3.08;;;;;;;19.74;73.43;93167.38;4992089;28;20058;-88
2021/07/13 05:30:00;;;;;;;4.88;3.08;;;;;;;19.85;72.90;93162.88;4992247;28;20487;-87
2021/07/13 05:32:28;;;;;;;6.47;3.35;;;;;;;19.94;72.67;93162.31;4991125;28;20058;-87
2021/07/13 05:34:55;;;;;;;5.55;2.95;;;;;;;20.02;71.47;93159.97;4992306;28;20050;-88
2021/07/13 05:37:22;;;;;;;4.63;2.40;;;;;;;20.26;70.34;93171.53;4992260;28;20050;-88
2021/07/13 05:39:49;;;;;;;4.22;3.10;;;;;;;20.48;70.14;93162.53;4992299;28;20058;-88
2021/07/13 05:42:16;;;;;;;4.00;2.45;;;;;;;20.75;68.72;93164.66;4992094;28;20054;-89
2021/07/13 05:44:43;;;;;;;5.80;2.90;;;;;;;20.83;68.77;93171.13;4992085;28;20050;-88
2021/07/13 05:47:11;;;;;;;4.05;2.08;;;;;;;21.06;67.82;93161.03;4991892;28;20121;-87
2021/07/13 05:49:40;;;;;;;8.15;2.70;;;;;;;21.22;66.89;93156.41;4991790;28;20054;-88
2021/07/13 05:52:07;;;;;;;6.88;3.33;;;;;;;21.44;66.02;93161.13;4991789;28;20097;-88
2021/07/13 05:54:34;;;;;;;5.03;3.65;;;;;;;21.59;66.04;93159.41;4991998;28;20523;-87
2021/07/13 05:57:01;;;;;;;3.63;2.28;;;;;;;21.84;64.67;93158.34;4991784;28;20054;-87
2021/07/13 05:59:28;;;;;;;3.97;3.10;;;;;;;22.18;63.34;93161.03;4991883;28;20058;-87
2021/07/13 06:01:55;;;;;;;4.50;3.03;;;;;;;22.30;62.16;93153.53;4991872;28;20050;-87
2021/07/13 06:04:23;;;;;;;7.53;2.58;;;;;;;22.54;62.53;93158.69;4991749;28;20080;-87
2021/07/13 06:06:50;;;;;;;5.53;2.13;;;;;;;22.75;61.24;93157.59;4991757;28;20058;-87
2021/07/13 06:09:16;;;;;;;32.97;4.22;;;;;;;22.93;59.56;93162.00;4991704;28;20046;-87
2021/07/13 06:11:43;;;;;;;3.75;1.88;;;;;;;23.08;59.05;93162.78;4991632;28;20050;-88
2021/07/13 06:14:10;;;;;;;5.60;3.55;;;;;;;23.07;58.41;93162.03;4991335;28;20471;-86
2021/07/13 06:16:37;;;;;;;8.15;4.90;;;;;;;23.17;58.33;93161.06;4991545;28;20498;-87
2021/07/13 06:19:03;;;;;;;4.95;3.30;;;;;;;23.46;57.65;93154.78;4991595;28;20491;-87
2021/07/13 06:21:32;;;;;;;4.93;3.67;;;;;;;23.65;57.66;93158.38;4991501;28;20050;-87
2021/07/13 06:23:58;;;;;;;3.08;2.45;;;;;;;23.67;56.96;93162.25;4991478;28;20057;-87
2021/07/13 06:26:25;;;;;;;3.47;2.45;;;;;;;23.87;56.72;93168.94;4991574;28;20418;-86
2021/07/13 06:28:52;;;;;;;7.03;3.38;;;;;;;24.14;55.89;93154.22;4991275;28;20046;-87
2021/07/13 06:31:19;;;;;;;4.07;2.60;;;;;;;24.67;54.14;93153.84;4991788;28;20050;-86
2021/07/13 06:33:45;;;;;;;4.07;2.17;;;;;;;25.04;52.50;93151.13;4991487;28;20401;-87
2021/07/13 06:36:12;;;;;;;4.63;3.33;;;;;;;25.32;51.65;93148.31;4991238;28;20491;-87
2021/07/13 06:38:40;;;;;;;4.63;3.05;;;;;;;25.46;50.96;93148.94;4991350;28;20053;-88
2021/07/13 06:41:07;;;;;;;3.88;2.90;;;;;;;25.71;50.88;93151.22;4991333;28;20495;-87
2021/07/13 06:43:34;;;;;;;5.00;3.28;;;;;;;25.99;50.08;93143.06;4994065;28;20054;-87
2021/07/13 06:46:01;;;;;;;4.22;2.80;;;;;;;25.99;50.91;93129.91;4995258;28;20104;-86
2021/07/13 06:48:28;;;;;;;8.77;3.35;;;;;;;26.55;49.50;93145.09;4995375;28;20454;-86
2021/07/13 06:50:55;;;;;;;4.63;2.45;;;;;;;26.55;49.50;93145.09;4995164;28;20046;-85
2021/07/13 06:53:23;;;;;;;10.07;3.30;;;;;;;27.40;45.60;93150.75;4995270;28;20054;-86
2021/07/13 06:55:51;;;;;;;8.93;3.00;;;;;;;27.86;45.63;93144.97;4995021;28;20065;-86
2021/07/13 06:58:18;;;;;;;4.90;3.15;;;;;;;28.24;44.83;93141.44;4995055;28;20062;-85
2021/07/13 07:00:44;;;;;;;5.38;3.45;;;;;;;28.59;44.47;93140.38;4995163;28;20100;-86
2021/07/13 07:03:11;;;;;;;8.40;3.85;;;;;;;28.78;42.87;93139.09;4994898;28;20047;-87
2021/07/13 07:05:40;;;;;;;8.80;4.18;;;;;;;28.65;43.04;93131.16;4995382;28;20042;-85
2021/07/13 07:08:07;;;;;;;6.53;4.13;;;;;;;28.91;42.22;93132.78;4994959;28;20054;-87
2021/07/13 07:10:35;;;;;;;23.15;4.13;;;;;;;29.20;42.09;93125.78;4994662;28;20097;-86
2021/07/13 07:13:04;;;;;;;5.28;2.92;;;;;;;29.36;41.45;93125.13;4994811;28;20054;-87
2021/07/13 07:15:31;;;;;;;6.00;2.75;;;;;;;29.78;41.59;93126.78;4994868;28;20133;-87
2021/07/13 07:17:58;;;;;;;5.90;3.58;;;;;;;30.15;40.33;93123.28;4994882;28;20085;-87
2021/07/13 07:20:27;;;;;;;4.93;2.97;;;;;;;30.15;40.33;93123.28;4994674;28;20050;-87
2021/07/13 07:22:55;;;;;;;3.58;2.22;;;;;;;30.79;38.63;93098.84;4994597;28;20050;-87
2021/07/13 07:25:22;;;;;;;5.15;2.78;;;;;;;31.28;37.93;93108.38;4994775;28;20054;-87
2021/07/13 07:27:55;;;;;;;8.75;3.75;;;;;;;31.42;36.35;93107.94;4994733;28;20447;-88
2021/07/13 07:30:24;;;;;;;2.85;1.98;;;;;;;31.66;35.90;93105.41;4994616;28;20057;-87
2021/07/13 07:32:52;;;;;;;3.05;2.00;;;;;;;31.80;36.20;93100.41;4994450;28;20391;-86
2021/07/13 07:35:19;;;;;;;2.90;1.60;;;;;;;32.08;34.61;93104.03;4994380;28;20058;-88
2021/07/13 07:37:47;;;;;;;3.78;2.63;;;;;;;32.23;35.79;93099.75;4994458;28;20054;-86
2021/07/13 07:40:17;;;;;;;4.05;2.05;;;;;;;32.32;35.30;93102.22;4994594;28;20112;-87
2021/07/13 07:42:44;;;;;;;7.18;1.90;;;;;;;32.39;35.42;93099.69;4994220;28;20057;-87
2021/07/13 07:45:12;;;;;;;3.22;2.25;;;;;;;-147.90;100.00;59510.75;4994205;28;20050;-88
2021/07/13 07:47:40;;;;;;;4.32;1.77;;;;;;;-147.90;100.00;59510.75;4994175;28;20065;-86
2021/07/13 07:50:09;;;;;;;5.97;3.13;;;;;;;-147.90;100.00;59510.75;4993984;28;20057;-85
2021/07/13 07:52:36;;;;;;;3.63;2.13;;;;;;;-147.90;100.00;59510.75;4994286;28;20042;-85
2021/07/13 07:55:04;;;;;;;7.10;2.13;;;;;;;-147.90;100.00;59510.75;4993029;28;20526;-87
2021/07/13 07:57:31;;;;;;;3.80;2.53;;;;;;;-147.90;100.00;59510.75;4994066;28;20061;-86
2021/07/13 07:59:58;;;;;;;3.22;2.15;;;;;;;-147.90;100.00;59510.75;4993867;28;20092;-87
2021/07/13 08:02:25;;;;;;;2.80;2.15;;;;;;;-147.90;100.00;59510.75;4991125;28;20054;-85
2021/07/13 08:04:53;;;;;;;3.47;2.17;;;;;;;-147.90;100.00;59510.75;4994192;28;20042;-85
2021/07/13 08:07:20;;;;;;;3.65;2.55;;;;;;;-147.90;100.00;59510.75;4993972;28;20109;-86
2021/07/13 08:09:47;;;;;;;4.25;2.50;;;;;;;-147.90;100.00;59510.75;4993832;28;20046;-86
2021/07/13 08:12:14;;;;;;;4.80;2.30;;;;;;;-147.90;100.00;59510.75;4993712;28;20054;-87
2021/07/13 08:14:41;;;;;;;8.82;2.30;;;;;;;-147.90;100.00;59510.75;4993565;28;20057;-87
2021/07/13 08:17:08;;;;;;;2.30;1.45;;;;;;;-147.90;100.00;59510.75;4993526;28;20054;-87
2021/07/13 08:19:38;;;;;;;5.18;3.00;;;;;;;-147.90;100.00;59510.75;4993597;28;20050;-86
2021/07/13 08:22:07;;;;;;;2.78;1.80;;;;;;;-147.90;100.00;59510.75;4993749;28;20046;-87
2021/07/13 08:24:34;;;;;;;4.75;2.58;;;;;;;-147.90;100.00;59510.75;4993510;28;20046;-84
2021/07/13 08:27:01;;;;;;;3.80;2.10;;;;;;;-147.90;100.00;59510.75;4993760;28;20083;-88
2021/07/13 08:29:28;;;;;;;3.53;2.50;;;;;;;-147.90;100.00;59510.75;4993274;28;20046;-86
2021/07/13 08:31:59;;;;;;;4.53;1.92;;;;;;;-147.90;100.00;59510.75;4993276;28;20058;-87
2021/07/13 08:34:26;;;;;;;3.63;2.17;;;;;;;-147.90;100.00;59510.75;4993447;28;20050;-87
2021/07/13 08:36:53;;;;;;;3.97;3.08;;;;;;;-147.90;100.00;59510.75;4993510;28;20055;-87
2021/07/13 08:39:21;;;;;;;2.83;2.10;;;;;;;-147.90;100.00;59510.75;4993292;28;20046;-86
2021/07/13 08:41:48;;;;;;;3.00;1.77;;;;;;;-147.90;100.00;59510.75;4993099;28;20079;-87
2021/07/13 08:44:15;;;;;;;3.63;1.88;;;;;;;35.04;28.61;93090.00;4993007;28;20054;-87
2021/07/13 08:46:43;;;;;;;3.80;2.05;;;;;;;35.23;28.92;93082.16;4993355;28;20050;-87
2021/07/13 08:49:12;;;;;;;3.80;2.28;;;;;;;35.45;28.92;93073.16;4993131;28;20050;-86
2021/07/13 08:51:40;;;;;;;3.28;2.20;;;;;;;35.63;28.01;93067.19;4993000;28;20058;-87
2021/07/13 08:54:07;;;;;;;3.00;2.10;;;;;;;35.60;26.62;93080.50;4992873;28;20514;-87
2021/07/13 08:56:37;;;;;;;6.78;2.20;;;;;;;35.65;27.73;93083.63;4993088;28;20061;-87
2021/07/13 08:59:05;;;;;;;4.25;2.13;;;;;;;35.78;27.53;93077.94;4993475;28;20526;-86
2021/07/13 09:01:32;;;;;;;4.53;2.28;;;;;;;36.04;27.09;93079.59;4994207;28;20050;-87
2021/07/13 09:04:04;;;;;;;3.65;2.33;;;;;;;36.10;26.96;93083.41;4992765;28;20487;-88
2021/07/13 09:06:50;;;;;;;4.43;2.00;;;;;;;36.14;27.03;93080.78;4992591;28;20054;-89
2021/07/13 09:09:23;;;;;;;4.43;1.98;;;;;;;36.25;26.19;93086.19;4992519;28;20050;-88
2021/07/13 09:12:06;;;;;;;2.70;1.75;;;;;;;36.42;24.90;93081.28;4992820;28;20051;-87
2021/07/13 09:14:49;;;;;;;7.15;2.80;;;;;;;36.48;26.52;93072.50;4992531;28;20051;-88
2021/07/13 09:17:30;;;;;;;3.58;2.17;;;;;;;36.62;25.95;93081.72;4992475;28;20042;-88
2021/07/13 09:20:21;;;;;;;2.38;1.95;;;;;;;36.36;25.15;93078.19;4999340;28;20505;-86
2021/07/13 09:22:56;;;;;;;3.05;2.17;;;;;;;36.16;25.46;93085.75;5000318;28;20050;-85
2021/07/13 09:25:27;;;;;;;4.72;2.40;;;;;;;34.72;26.56;93089.72;5000575;28;20038;-86
2021/07/13 09:28:12;;;;;;;3.05;1.60;;;;;;;35.13;28.29;93086.28;5001573;28;20054;-86
2021/07/13 09:30:40;;;;;;;4.13;1.98;;;;;;;35.45;27.57;93088.44;5002185;28;20144;-87
2021/07/13 09:33:18;;;;;;;3.42;2.15;;;;;;;35.70;27.43;93093.94;5000711;28;20042;-87
2021/07/13 09:36:06;;;;;;;3.40;2.13;;;;;;;35.45;25.70;93096.44;5004308;28;20054;-86
2021/07/13 09:38:35;;;;;;;4.97;2.70;;;;;;;35.24;26.57;93089.81;5000843;28;20438;-85
2021/07/13 09:41:11;;;;;;;3.97;2.40;;;;;;;35.64;26.12;93074.06;5000626;28;20046;-86
2021/07/13 09:43:50;;;;;;;4.35;2.17;;;;;;;36.11;25.92;93084.97;5001588;28;20042;-86
2021/07/13 09:46:29;;;;;;;4.93;2.58;;;;;;;36.43;24.34;93080.91;5001613;28;20412;-87
2021/07/13 09:49:20;;;;;;;3.53;2.10;;;;;;;35.45;24.84;93075.06;4999688;28;20053;-84
2021/07/13 09:51:54;;;;;;;2.47;1.77;;;;;;;35.13;26.14;93084.38;5005908;28;20053;-87
2021/07/13 09:54:32;;;;;;;4.47;2.60;;;;;;;35.70;27.02;93074.47;5006910;28;20054;-87
2021/07/13 09:56:59;;;;;;;2.85;1.48;;;;;;;36.05;26.25;93078.44;4998583;28;20045;-88
2021/07/13 09:59:28;;;;;;;3.45;1.85;;;;;;;36.34;24.68;93077.81;5002836;28;20457;-88
2021/07/13 10:01:55;;;;;;;2.70;1.55;;;;;;;36.48;23.97;93072.50;5000411;28;20054;-80
2021/07/13 10:04:22;;;;;;;2.00;1.00;;;;;;;35.92;22.98;93074.56;5000691;28;20092;-85
2021/07/13 10:06:52;;;;;;;2.75;1.60;;;;;;;35.45;23.85;93070.47;5001943;28;20065;-88
2021/07/13 10:09:21;;;;;;;1.63;1.33;;;;;;;34.87;23.30;93075.38;5000754;28;20050;-86
2021/07/13 10:11:48;;;;;;;3.97;1.50;;;;;;;35.13;23.97;93075.63;4999589;28;20443;-87
2021/07/13 10:14:15;;;;;;;4.50;1.67;;;;;;;35.60;24.18;93061.78;5001546;28;20061;-88
2021/07/13 10:16:44;;;;;;;2.45;1.70;;;;;;;35.84;24.57;93073.78;5000977;28;20046;-87
2021/07/13 10:19:10;;;;;;;9.07;3.35;;;;;;;36.10;25.15;93063.97;5011569;28;20438;-86
2021/07/13 10:21:38;;;;;;;2.35;1.85;;;;;;;36.31;24.73;93070.53;5011183;28;20103;-87
2021/07/13 10:24:06;;;;;;;4.55;1.70;;;;;;;35.03;25.67;93051.09;5010818;28;20136;-87
2021/07/13 10:26:44;;;;;;;3.78;1.70;;;;;;;35.17;26.32;93057.72;5007930;28;20782;-86
2021/07/13 10:29:45;;;;;;;3.55;1.90;;;;;;;34.54;26.08;93058.28;5009818;28;20050;-86
2021/07/13 10:32:36;;;;;;;2.42;1.58;;;;;;;35.20;25.96;93058.88;4950387;29;20492;-81
2021/07/13 10:35:07;;;;;;;3.72;2.38;;;;;;;35.66;25.66;93054.97;4950304;29;20048;-86
2021/07/13 10:37:36;;;;;;;3.47;2.20;;;;;;;35.95;25.12;93057.78;4988944;28;20046;-87
2021/07/13 10:40:07;;;;;;;3.30;1.70;;;;;;;36.41;25.50;93051.06;5011087;28;20092;-88
2021/07/13 10:42:54;;;;;;;3.63;2.08;;;;;;;36.85;25.04;93057.28;5011383;28;20395;-87
2021/07/13 10:45:24;;;;;;;5.75;2.88;;;;;;;37.18;24.20;93059.97;5003576;28;20047;-87
2021/07/13 10:48:01;;;;;;;6.18;3.00;;;;;;;37.38;24.89;93051.53;4991403;28;20050;-86
2021/07/13 10:50:42;;;;;;;2.88;2.00;;;;;;;37.40;23.93;93055.34;4991443;28;20096;-85
2021/07/13 10:53:15;;;;;;;2.75;1.50;;;;;;;37.40;23.93;93055.34;5006041;28;20042;-88
2021/07/13 10:55:51;;;;;;;4.25;1.77;;;;;;;37.44;23.64;93048.06;4993050;28;20057;-85
2021/07/13 10:58:29;;;;;;;8.85;2.00;;;;;;;37.60;24.26;93051.50;5004489;28;20131;-86
2021/07/13 11:01:11;;;;;;;3.08;2.53;;;;;;;37.74;22.75;93037.28;5030440;28;20058;-84
2021/07/13 11:04:12;;;;;;;2.50;1.77;;;;;;;37.94;23.56;93041.06;5030424;28;20050;-87
2021/07/13 11:06:49;;;;;;;4.22;2.40;;;;;;;37.06;24.34;93034.31;5009490;28;20057;-86
2021/07/13 11:09:24;;;;;;;6.00;2.63;;;;;;;36.11;25.06;93042.22;5005915;28;20049;-84
2021/07/13 11:11:52;;;;;;;4.53;2.05;;;;;;;35.79;26.23;93042.84;5005963;28;20131;-86
2021/07/13 11:14:19;;;;;;;3.53;2.20;;;;;;;35.78;26.66;93041.31;5002089;28;20053;-84
2021/07/13 11:16:51;;;;;;;3.42;2.03;;;;;;;36.17;26.08;93041.84;4999330;28;20058;-86
2021/07/13 11:19:19;;;;;;;2.88;1.90;;;;;;;36.61;24.60;93034.69;4991852;28;20052;-88
2021/07/13 11:21:47;;;;;;;2.47;1.55;;;;;;;36.00;25.22;93036.03;4998377;28;20054;-85
2021/07/13 11:24:17;;;;;;;2.58;1.98;;;;;;;35.71;25.68;93033.25;5003555;28;20078;-86
2021/07/13 11:26:46;;;;;;;2.55;1.92;;;;;;;36.17;25.68;93026.56;5004970;28;20054;-84
2021/07/13 11:29:19;;;;;;;2.53;2.05;;;;;;;35.40;26.65;93022.75;5006410;28;20103;-85
2021/07/13 11:31:49;;;;;;;3.45;2.20;;;;;;;35.31;26.18;93017.75;5002421;28;20046;-86
2021/07/13 11:34:19;;;;;;;3.25;1.60;;;;;;;35.17;26.49;93015.00;5004301;28;20426;-85
2021/07/13 11:36:49;;;;;;;3.60;1.98;;;;;;;34.95;27.12;93030.84;5009237;28;20080;-87
2021/07/13 11:39:21;;;;;;;3.42;2.40;;;;;;;34.91;26.71;93012.16;5009113;28;20534;-88
2021/07/13 11:41:51;;;;;;;2.20;1.70;;;;;;;35.04;25.64;93023.28;5009332;28;20050;-85
2021/07/13 11:44:17;;;;;;;4.60;2.13;;;;;;;35.31;26.02;93020.44;5009130;28;20155;-86